sensor_id;sensor_type;location;lat;lon;timestamp;P1;durP1;ratioP1;P2;durP2;ratioP2
77948;SDS011;67146;51.236;-0.336;2023-07-22T00:02:23;5.50;;;1.27;;
77948;SDS011;67146;51.236;-0.336;2023-07-22T00:04:51;5.95;;;1.70;;
77948;SDS011;67146;51.236;-0.336;2023-07-22T00:07:20;5.68;;;1.70;;
77948;SDS011;67146;51.236;-0.336;2023-07-22T00:09:52;5.95;;;1.73;;
77948;SDS011;67146;51.236;-0.336;2023-07-22T00:12:20;5.10;;;1.52;;
77948;SDS011;67146;51.236;-0.336;2023-07-22T00:14:56;6.45;;;1.73;;
77948;SDS011;67146;51.236;-0.336;2023-07-22T00:17:26;6.28;;;1.52;;
77948;SDS011;67146;51.236;-0.336;2023-07-22T00:19:54;7.05;;;1.58;;
77948;SDS011;67146;51.236;-0.336;2023-07-22T00:22:20;5.18;;;1.60;;
77948;SDS011;67146;51.236;-0.336;2023-07-22T00:24:46;5.85;;;1.23;;
77948;SDS011;67146;51.236;-0.336;2023-07-22T00:27:12;5.90;;;1.38;;
77948;SDS011;67146;51.236;-0.336;2023-07-22T00:29:48;7.07;;;1.65;;
77948;SDS011;67146;51.236;-0.336;2023-07-22T00:35:23;4.28;;;1.15;;
77948;SDS011;67146;51.236;-0.336;2023-07-22T00:37:51;6.95;;;1.80;;
77948;SDS011;67146;51.236;-0.336;2023-07-22T00:40:17;14.68;;;2.35;;
77948;SDS011;67146;51.236;-0.336;2023-07-22T00:42:43;5.30;;;1.75;;
77948;SDS011;67146;51.236;-0.336;2023-07-22T00:45:11;8.35;;;1.80;;
77948;SDS011;67146;51.236;-0.336;2023-07-22T00:47:37;5.85;;;1.35;;
77948;SDS011;67146;51.236;-0.336;2023-07-22T00:50:03;8.00;;;1.83;;
77948;SDS011;67146;51.236;-0.336;2023-07-22T00:52:31;4.63;;;1.23;;
77948;SDS011;67146;51.236;-0.336;2023-07-22T00:55:00;5.10;;;1.48;;
77948;SDS011;67146;51.236;-0.336;2023-07-22T00:57:29;5.20;;;1.92;;
77948;SDS011;67146;51.236;-0.336;2023-07-22T01:00:02;4.55;;;1.20;;
77948;SDS011;67146;51.236;-0.336;2023-07-22T01:02:28;5.50;;;1.45;;
77948;SDS011;67146;51.236;-0.336;2023-07-22T01:04:54;4.85;;;1.50;;
77948;SDS011;67146;51.236;-0.336;2023-07-22T01:07:19;5.90;;;1.27;;
77948;SDS011;67146;51.236;-0.336;2023-07-22T01:09:49;5.70;;;1.30;;
77948;SDS011;67146;51.236;-0.336;2023-07-22T01:12:21;6.25;;;1.33;;
77948;SDS011;67146;51.236;-0.336;2023-07-22T01:14:46;7.20;;;1.60;;
77948;SDS011;67146;51.236;-0.336;2023-07-22T01:17:15;6.85;;;1.30;;
77948;SDS011;67146;51.236;-0.336;2023-07-22T01:19:46;4.30;;;1.20;;
77948;SDS011;67146;51.236;-0.336;2023-07-22T01:22:12;5.28;;;1.15;;
77948;SDS011;67146;51.236;-0.336;2023-07-22T01:24:40;4.45;;;1.45;;
77948;SDS011;67146;51.236;-0.336;2023-07-22T01:29:35;6.45;;;1.17;;
77948;SDS011;67146;51.236;-0.336;2023-07-22T01:32:01;5.95;;;0.95;;
77948;SDS011;67146;51.236;-0.336;2023-07-22T01:34:26;6.32;;;1.25;;
77948;SDS011;67146;51.236;-0.336;2023-07-22T01:36:52;6.03;;;1.25;;
77948;SDS011;67146;51.236;-0.336;2023-07-22T01:39:20;5.18;;;1.58;;
77948;SDS011;67146;51.236;-0.336;2023-07-22T01:41:50;5.10;;;1.17;;
77948;SDS011;67146;51.236;-0.336;2023-07-22T01:44:23;4.28;;;0.93;;
77948;SDS011;67146;51.236;-0.336;2023-07-22T01:46:51;7.35;;;1.27;;
77948;SDS011;67146;51.236;-0.336;2023-07-22T01:49:30;5.85;;;1.23;;
77948;SDS011;67146;51.236;-0.336;2023-07-22T01:52:00;6.85;;;1.17;;
77948;SDS011;67146;51.236;-0.336;2023-07-22T01:54:29;4.93;;;0.90;;
77948;SDS011;67146;51.236;-0.336;2023-07-22T01:56:56;4.93;;;0.98;;
77948;SDS011;67146;51.236;-0.336;2023-07-22T01:59:29;5.30;;;0.75;;
77948;SDS011;67146;51.236;-0.336;2023-07-22T02:01:57;5.18;;;1.00;;
77948;SDS011;67146;51.236;-0.336;2023-07-22T02:04:22;4.95;;;1.25;;
77948;SDS011;67146;51.236;-0.336;2023-07-22T02:06:56;5.63;;;1.05;;
77948;SDS011;67146;51.236;-0.336;2023-07-22T02:09:26;4.57;;;1.00;;
77948;SDS011;67146;51.236;-0.336;2023-07-22T02:11:54;5.63;;;0.98;;
77948;SDS011;67146;51.236;-0.336;2023-07-22T02:14:20;5.30;;;1.52;;
77948;SDS011;67146;51.236;-0.336;2023-07-22T02:16:45;4.55;;;1.20;;
77948;SDS011;67146;51.236;-0.336;2023-07-22T02:19:11;5.95;;;1.10;;
77948;SDS011;67146;51.236;-0.336;2023-07-22T02:21:36;6.68;;;1.27;;
77948;SDS011;67146;51.236;-0.336;2023-07-22T02:24:07;4.65;;;0.90;;
77948;SDS011;67146;51.236;-0.336;2023-07-22T02:26:33;4.50;;;1.05;;
77948;SDS011;67146;51.236;-0.336;2023-07-22T02:29:01;6.90;;;1.15;;
77948;SDS011;67146;51.236;-0.336;2023-07-22T02:31:27;6.03;;;0.88;;
77948;SDS011;67146;51.236;-0.336;2023-07-22T02:33:58;5.90;;;1.52;;
77948;SDS011;67146;51.236;-0.336;2023-07-22T02:36:23;5.57;;;0.90;;
77948;SDS011;67146;51.236;-0.336;2023-07-22T02:38:54;4.65;;;0.80;;
77948;SDS011;67146;51.236;-0.336;2023-07-22T02:41:27;4.72;;;0.80;;
77948;SDS011;67146;51.236;-0.336;2023-07-22T02:43:53;5.50;;;0.98;;
77948;SDS011;67146;51.236;-0.336;2023-07-22T02:46:18;4.35;;;0.85;;
77948;SDS011;67146;51.236;-0.336;2023-07-22T02:48:47;6.30;;;1.23;;
77948;SDS011;67146;51.236;-0.336;2023-07-22T02:51:12;4.75;;;1.08;;
77948;SDS011;67146;51.236;-0.336;2023-07-22T02:53:38;5.13;;;0.88;;
77948;SDS011;67146;51.236;-0.336;2023-07-22T02:56:06;5.65;;;0.82;;
77948;SDS011;67146;51.236;-0.336;2023-07-22T02:58:32;5.10;;;1.02;;
77948;SDS011;67146;51.236;-0.336;2023-07-22T03:00:58;5.15;;;0.93;;
77948;SDS011;67146;51.236;-0.336;2023-07-22T03:03:27;10.73;;;1.08;;
77948;SDS011;67146;51.236;-0.336;2023-07-22T03:06:00;4.85;;;2.22;;
77948;SDS011;67146;51.236;-0.336;2023-07-22T03:10:53;5.03;;;0.90;;
77948;SDS011;67146;51.236;-0.336;2023-07-22T03:13:21;5.60;;;0.95;;
77948;SDS011;67146;51.236;-0.336;2023-07-22T03:15:46;4.57;;;0.68;;
77948;SDS011;67146;51.236;-0.336;2023-07-22T03:18:18;6.05;;;1.20;;
77948;SDS011;67146;51.236;-0.336;2023-07-22T03:20:46;4.32;;;0.88;;
77948;SDS011;67146;51.236;-0.336;2023-07-22T03:23:11;4.53;;;1.23;;
77948;SDS011;67146;51.236;-0.336;2023-07-22T03:25:39;6.15;;;0.80;;
77948;SDS011;67146;51.236;-0.336;2023-07-22T03:28:07;7.43;;;1.58;;
77948;SDS011;67146;51.236;-0.336;2023-07-22T03:30:35;5.18;;;1.05;;
77948;SDS011;67146;51.236;-0.336;2023-07-22T03:33:00;4.28;;;0.63;;
77948;SDS011;67146;51.236;-0.336;2023-07-22T03:35:28;5.63;;;0.90;;
77948;SDS011;67146;51.236;-0.336;2023-07-22T03:37:56;5.28;;;1.05;;
77948;SDS011;67146;51.236;-0.336;2023-07-22T03:40:21;4.55;;;1.10;;
77948;SDS011;67146;51.236;-0.336;2023-07-22T03:42:52;5.32;;;1.25;;
77948;SDS011;67146;51.236;-0.336;2023-07-22T03:45:18;7.63;;;1.23;;
77948;SDS011;67146;51.236;-0.336;2023-07-22T03:47:44;6.22;;;0.88;;
77948;SDS011;67146;51.236;-0.336;2023-07-22T03:50:13;4.97;;;1.33;;
77948;SDS011;67146;51.236;-0.336;2023-07-22T03:52:41;5.90;;;0.93;;
77948;SDS011;67146;51.236;-0.336;2023-07-22T03:55:06;6.28;;;1.48;;
77948;SDS011;67146;51.236;-0.336;2023-07-22T03:57:33;4.85;;;0.65;;
77948;SDS011;67146;51.236;-0.336;2023-07-22T03:59:58;5.65;;;0.90;;
77948;SDS011;67146;51.236;-0.336;2023-07-22T04:02:24;5.30;;;0.90;;
77948;SDS011;67146;51.236;-0.336;2023-07-22T04:04:53;4.78;;;0.82;;
77948;SDS011;67146;51.236;-0.336;2023-07-22T04:07:19;3.70;;;0.70;;
77948;SDS011;67146;51.236;-0.336;2023-07-22T04:09:44;5.20;;;0.85;;
77948;SDS011;67146;51.236;-0.336;2023-07-22T04:12:12;4.45;;;1.15;;
77948;SDS011;67146;51.236;-0.336;2023-07-22T04:14:38;5.68;;;0.80;;
77948;SDS011;67146;51.236;-0.336;2023-07-22T04:17:04;5.85;;;1.20;;
77948;SDS011;67146;51.236;-0.336;2023-07-22T04:19:30;5.50;;;1.10;;
77948;SDS011;67146;51.236;-0.336;2023-07-22T04:21:55;6.18;;;0.60;;
77948;SDS011;67146;51.236;-0.336;2023-07-22T04:24:21;5.43;;;0.82;;
77948;SDS011;67146;51.236;-0.336;2023-07-22T04:26:46;4.22;;;0.82;;
77948;SDS011;67146;51.236;-0.336;2023-07-22T04:29:12;4.60;;;0.82;;
77948;SDS011;67146;51.236;-0.336;2023-07-22T04:31:38;5.03;;;0.93;;
77948;SDS011;67146;51.236;-0.336;2023-07-22T04:34:06;4.55;;;0.65;;
77948;SDS011;67146;51.236;-0.336;2023-07-22T04:36:34;4.30;;;0.70;;
77948;SDS011;67146;51.236;-0.336;2023-07-22T04:38:59;5.00;;;1.00;;
77948;SDS011;67146;51.236;-0.336;2023-07-22T04:41:29;7.63;;;1.23;;
77948;SDS011;67146;51.236;-0.336;2023-07-22T04:43:56;3.47;;;0.73;;
77948;SDS011;67146;51.236;-0.336;2023-07-22T04:46:25;4.85;;;0.73;;
77948;SDS011;67146;51.236;-0.336;2023-07-22T04:48:53;4.63;;;0.88;;
77948;SDS011;67146;51.236;-0.336;2023-07-22T04:51:19;4.57;;;0.80;;
77948;SDS011;67146;51.236;-0.336;2023-07-22T04:53:44;3.75;;;0.70;;
77948;SDS011;67146;51.236;-0.336;2023-07-22T04:56:10;4.05;;;0.88;;
77948;SDS011;67146;51.236;-0.336;2023-07-22T04:58:35;3.58;;;0.68;;
77948;SDS011;67146;51.236;-0.336;2023-07-22T05:01:00;6.55;;;0.98;;
77948;SDS011;67146;51.236;-0.336;2023-07-22T05:03:28;4.68;;;0.95;;
77948;SDS011;67146;51.236;-0.336;2023-07-22T05:05:54;6.20;;;0.75;;
77948;SDS011;67146;51.236;-0.336;2023-07-22T05:08:19;3.67;;;0.60;;
77948;SDS011;67146;51.236;-0.336;2023-07-22T05:10:44;5.25;;;1.20;;
77948;SDS011;67146;51.236;-0.336;2023-07-22T05:13:12;3.60;;;0.60;;
77948;SDS011;67146;51.236;-0.336;2023-07-22T05:15:42;3.53;;;0.52;;
77948;SDS011;67146;51.236;-0.336;2023-07-22T05:18:08;4.57;;;0.82;;
77948;SDS011;67146;51.236;-0.336;2023-07-22T05:20:33;4.93;;;0.65;;
77948;SDS011;67146;51.236;-0.336;2023-07-22T05:23:01;4.35;;;1.35;;
77948;SDS011;67146;51.236;-0.336;2023-07-22T05:25:27;5.80;;;0.63;;
77948;SDS011;67146;51.236;-0.336;2023-07-22T05:27:52;4.47;;;0.85;;
77948;SDS011;67146;51.236;-0.336;2023-07-22T05:30:17;3.92;;;0.60;;
77948;SDS011;67146;51.236;-0.336;2023-07-22T05:32:45;5.47;;;0.80;;
77948;SDS011;67146;51.236;-0.336;2023-07-22T05:35:16;6.53;;;0.98;;
77948;SDS011;67146;51.236;-0.336;2023-07-22T05:37:41;6.38;;;0.80;;
77948;SDS011;67146;51.236;-0.336;2023-07-22T05:40:07;4.28;;;0.55;;
77948;SDS011;67146;51.236;-0.336;2023-07-22T05:42:33;4.78;;;0.90;;
77948;SDS011;67146;51.236;-0.336;2023-07-22T05:44:58;5.13;;;1.13;;
77948;SDS011;67146;51.236;-0.336;2023-07-22T05:47:28;4.72;;;0.60;;
77948;SDS011;67146;51.236;-0.336;2023-07-22T05:49:56;5.45;;;0.80;;
77948;SDS011;67146;51.236;-0.336;2023-07-22T05:52:21;4.60;;;1.27;;
77948;SDS011;67146;51.236;-0.336;2023-07-22T05:54:47;4.10;;;0.90;;
77948;SDS011;67146;51.236;-0.336;2023-07-22T05:57:12;3.72;;;1.10;;
77948;SDS011;67146;51.236;-0.336;2023-07-22T05:59:38;5.45;;;0.73;;
77948;SDS011;67146;51.236;-0.336;2023-07-22T06:02:05;3.90;;;0.93;;
77948;SDS011;67146;51.236;-0.336;2023-07-22T06:04:31;4.22;;;0.70;;
77948;SDS011;67146;51.236;-0.336;2023-07-22T06:06:59;4.40;;;0.95;;
77948;SDS011;67146;51.236;-0.336;2023-07-22T06:09:25;4.38;;;0.95;;
77948;SDS011;67146;51.236;-0.336;2023-07-22T06:11:50;5.93;;;2.20;;
77948;SDS011;67146;51.236;-0.336;2023-07-22T06:14:18;5.80;;;1.02;;
77948;SDS011;67146;51.236;-0.336;2023-07-22T06:16:46;4.18;;;0.60;;
77948;SDS011;67146;51.236;-0.336;2023-07-22T06:19:12;4.80;;;1.10;;
77948;SDS011;67146;51.236;-0.336;2023-07-22T06:21:37;5.43;;;0.73;;
77948;SDS011;67146;51.236;-0.336;2023-07-22T06:24:03;4.35;;;1.13;;
77948;SDS011;67146;51.236;-0.336;2023-07-22T06:26:28;5.45;;;1.10;;
77948;SDS011;67146;51.236;-0.336;2023-07-22T06:28:54;4.95;;;0.80;;
77948;SDS011;67146;51.236;-0.336;2023-07-22T06:31:22;4.38;;;0.77;;
77948;SDS011;67146;51.236;-0.336;2023-07-22T06:33:47;5.93;;;1.05;;
77948;SDS011;67146;51.236;-0.336;2023-07-22T06:36:15;3.40;;;0.82;;
77948;SDS011;67146;51.236;-0.336;2023-07-22T06:38:43;4.40;;;1.05;;
77948;SDS011;67146;51.236;-0.336;2023-07-22T06:41:08;4.60;;;0.73;;
77948;SDS011;67146;51.236;-0.336;2023-07-22T06:43:33;4.78;;;0.95;;
77948;SDS011;67146;51.236;-0.336;2023-07-22T06:45:59;4.97;;;1.00;;
77948;SDS011;67146;51.236;-0.336;2023-07-22T06:48:25;4.45;;;0.98;;
77948;SDS011;67146;51.236;-0.336;2023-07-22T06:50:50;3.05;;;0.70;;
77948;SDS011;67146;51.236;-0.336;2023-07-22T06:53:15;4.05;;;0.70;;
77948;SDS011;67146;51.236;-0.336;2023-07-22T06:55:48;5.13;;;1.02;;
77948;SDS011;67146;51.236;-0.336;2023-07-22T06:58:14;5.88;;;0.55;;
77948;SDS011;67146;51.236;-0.336;2023-07-22T07:00:40;3.95;;;0.65;;
77948;SDS011;67146;51.236;-0.336;2023-07-22T07:03:05;5.55;;;0.63;;
77948;SDS011;67146;51.236;-0.336;2023-07-22T07:05:30;3.33;;;0.77;;
77948;SDS011;67146;51.236;-0.336;2023-07-22T07:07:56;3.90;;;0.68;;
77948;SDS011;67146;51.236;-0.336;2023-07-22T07:10:21;3.35;;;0.38;;
77948;SDS011;67146;51.236;-0.336;2023-07-22T07:12:47;5.20;;;1.17;;
77948;SDS011;67146;51.236;-0.336;2023-07-22T07:15:12;3.78;;;0.47;;
77948;SDS011;67146;51.236;-0.336;2023-07-22T07:17:38;5.65;;;0.98;;
77948;SDS011;67146;51.236;-0.336;2023-07-22T07:20:03;4.20;;;0.98;;
77948;SDS011;67146;51.236;-0.336;2023-07-22T07:22:29;4.22;;;1.60;;
77948;SDS011;67146;51.236;-0.336;2023-07-22T07:24:54;3.95;;;0.60;;
77948;SDS011;67146;51.236;-0.336;2023-07-22T07:27:20;5.20;;;0.93;;
77948;SDS011;67146;51.236;-0.336;2023-07-22T07:29:46;4.15;;;0.68;;
77948;SDS011;67146;51.236;-0.336;2023-07-22T07:32:11;5.63;;;0.77;;
77948;SDS011;67146;51.236;-0.336;2023-07-22T07:37:05;4.10;;;0.67;;
77948;SDS011;67146;51.236;-0.336;2023-07-22T07:39:30;6.20;;;0.80;;
77948;SDS011;67146;51.236;-0.336;2023-07-22T07:41:56;3.83;;;0.90;;
77948;SDS011;67146;51.236;-0.336;2023-07-22T07:44:21;4.63;;;0.47;;
77948;SDS011;67146;51.236;-0.336;2023-07-22T07:46:46;3.25;;;1.17;;
77948;SDS011;67146;51.236;-0.336;2023-07-22T07:49:12;3.17;;;0.53;;
77948;SDS011;67146;51.236;-0.336;2023-07-22T07:51:37;2.15;;;0.60;;
77948;SDS011;67146;51.236;-0.336;2023-07-22T07:54:03;3.30;;;0.40;;
77948;SDS011;67146;51.236;-0.336;2023-07-22T07:56:31;2.97;;;0.52;;
77948;SDS011;67146;51.236;-0.336;2023-07-22T07:58:56;4.18;;;0.43;;
77948;SDS011;67146;51.236;-0.336;2023-07-22T08:01:23;2.75;;;0.55;;
77948;SDS011;67146;51.236;-0.336;2023-07-22T08:03:49;2.80;;;0.40;;
77948;SDS011;67146;51.236;-0.336;2023-07-22T08:06:14;2.05;;;0.40;;
77948;SDS011;67146;51.236;-0.336;2023-07-22T08:08:40;4.63;;;0.60;;
77948;SDS011;67146;51.236;-0.336;2023-07-22T08:11:06;3.47;;;0.60;;
77948;SDS011;67146;51.236;-0.336;2023-07-22T08:13:35;3.67;;;0.60;;
77948;SDS011;67146;51.236;-0.336;2023-07-22T08:16:04;3.35;;;0.82;;
77948;SDS011;67146;51.236;-0.336;2023-07-22T08:18:30;5.40;;;0.60;;
77948;SDS011;67146;51.236;-0.336;2023-07-22T08:20:56;3.53;;;0.60;;
77948;SDS011;67146;51.236;-0.336;2023-07-22T08:23:22;3.60;;;0.52;;
77948;SDS011;67146;51.236;-0.336;2023-07-22T08:25:50;3.40;;;0.52;;
77948;SDS011;67146;51.236;-0.336;2023-07-22T08:28:16;5.20;;;0.68;;
77948;SDS011;67146;51.236;-0.336;2023-07-22T08:30:42;2.65;;;0.70;;
77948;SDS011;67146;51.236;-0.336;2023-07-22T08:33:10;3.53;;;0.70;;
77948;SDS011;67146;51.236;-0.336;2023-07-22T08:35:38;6.90;;;1.15;;
77948;SDS011;67146;51.236;-0.336;2023-07-22T08:38:05;3.88;;;0.70;;
77948;SDS011;67146;51.236;-0.336;2023-07-22T08:40:40;4.30;;;0.70;;
77948;SDS011;67146;51.236;-0.336;2023-07-22T08:43:09;2.85;;;0.63;;
77948;SDS011;67146;51.236;-0.336;2023-07-22T08:45:35;3.85;;;0.65;;
77948;SDS011;67146;51.236;-0.336;2023-07-22T08:48:05;4.05;;;0.63;;
77948;SDS011;67146;51.236;-0.336;2023-07-22T08:50:34;5.15;;;1.15;;
77948;SDS011;67146;51.236;-0.336;2023-07-22T08:53:05;15.38;;;0.88;;
77948;SDS011;67146;51.236;-0.336;2023-07-22T08:55:31;3.00;;;0.50;;
77948;SDS011;67146;51.236;-0.336;2023-07-22T08:57:56;4.20;;;1.17;;
77948;SDS011;67146;51.236;-0.336;2023-07-22T09:00:23;4.80;;;0.75;;
77948;SDS011;67146;51.236;-0.336;2023-07-22T09:02:48;3.08;;;0.47;;
77948;SDS011;67146;51.236;-0.336;2023-07-22T09:05:14;4.35;;;0.50;;
77948;SDS011;67146;51.236;-0.336;2023-07-22T09:07:40;6.40;;;0.90;;
77948;SDS011;67146;51.236;-0.336;2023-07-22T09:10:09;4.05;;;0.60;;
77948;SDS011;67146;51.236;-0.336;2023-07-22T09:12:35;4.22;;;0.60;;
77948;SDS011;67146;51.236;-0.336;2023-07-22T09:15:11;5.97;;;0.60;;
77948;SDS011;67146;51.236;-0.336;2023-07-22T09:17:40;4.55;;;0.93;;
77948;SDS011;67146;51.236;-0.336;2023-07-22T09:20:06;4.47;;;0.95;;
77948;SDS011;67146;51.236;-0.336;2023-07-22T09:22:32;4.53;;;0.63;;
77948;SDS011;67146;51.236;-0.336;2023-07-22T09:27:44;6.38;;;0.88;;
77948;SDS011;67146;51.236;-0.336;2023-07-22T09:30:23;5.07;;;0.88;;
77948;SDS011;67146;51.236;-0.336;2023-07-22T09:32:51;6.68;;;0.90;;
77948;SDS011;67146;51.236;-0.336;2023-07-22T09:35:18;3.58;;;0.80;;
77948;SDS011;67146;51.236;-0.336;2023-07-22T09:37:43;4.10;;;0.68;;
77948;SDS011;67146;51.236;-0.336;2023-07-22T09:40:16;5.10;;;1.05;;
77948;SDS011;67146;51.236;-0.336;2023-07-22T09:42:53;3.53;;;0.68;;
77948;SDS011;67146;51.236;-0.336;2023-07-22T09:45:21;3.08;;;0.80;;
77948;SDS011;67146;51.236;-0.336;2023-07-22T09:50:15;4.55;;;0.82;;
77948;SDS011;67146;51.236;-0.336;2023-07-22T09:52:44;4.55;;;0.90;;
77948;SDS011;67146;51.236;-0.336;2023-07-22T09:55:20;4.45;;;0.80;;
77948;SDS011;67146;51.236;-0.336;2023-07-22T09:57:54;7.53;;;1.23;;
77948;SDS011;67146;51.236;-0.336;2023-07-22T10:00:27;4.18;;;0.82;;
77948;SDS011;67146;51.236;-0.336;2023-07-22T10:02:57;4.22;;;0.68;;
77948;SDS011;67146;51.236;-0.336;2023-07-22T10:05:24;3.08;;;0.60;;
77948;SDS011;67146;51.236;-0.336;2023-07-22T10:07:51;3.85;;;0.32;;
77948;SDS011;67146;51.236;-0.336;2023-07-22T10:10:19;5.63;;;0.75;;
77948;SDS011;67146;51.236;-0.336;2023-07-22T10:17:37;4.00;;;0.65;;
77948;SDS011;67146;51.236;-0.336;2023-07-22T10:20:04;4.68;;;1.00;;
77948;SDS011;67146;51.236;-0.336;2023-07-22T10:22:36;3.88;;;0.80;;
77948;SDS011;67146;51.236;-0.336;2023-07-22T10:25:05;4.85;;;0.63;;
77948;SDS011;67146;51.236;-0.336;2023-07-22T10:27:35;3.10;;;0.65;;
77948;SDS011;67146;51.236;-0.336;2023-07-22T10:30:01;3.08;;;0.80;;
77948;SDS011;67146;51.236;-0.336;2023-07-22T10:32:36;5.22;;;1.67;;
77948;SDS011;67146;51.236;-0.336;2023-07-22T10:35:03;6.13;;;1.25;;
77948;SDS011;67146;51.236;-0.336;2023-07-22T10:37:30;2.22;;;0.38;;
77948;SDS011;67146;51.236;-0.336;2023-07-22T10:40:44;3.00;;;0.63;;
77948;SDS011;67146;51.236;-0.336;2023-07-22T10:42:53;2.95;;;0.47;;
77948;SDS011;67146;51.236;-0.336;2023-07-22T10:45:28;4.40;;;0.55;;
77948;SDS011;67146;51.236;-0.336;2023-07-22T10:48:01;3.95;;;0.75;;
77948;SDS011;67146;51.236;-0.336;2023-07-22T10:50:51;3.47;;;0.65;;
77948;SDS011;67146;51.236;-0.336;2023-07-22T10:56:05;4.32;;;0.93;;
77948;SDS011;67146;51.236;-0.336;2023-07-22T11:01:21;3.67;;;0.60;;
77948;SDS011;67146;51.236;-0.336;2023-07-22T11:04:20;4.72;;;0.80;;
77948;SDS011;67146;51.236;-0.336;2023-07-22T11:11:53;4.43;;;0.68;;
77948;SDS011;67146;51.236;-0.336;2023-07-22T11:14:22;3.70;;;0.95;;
77948;SDS011;67146;51.236;-0.336;2023-07-22T11:16:48;3.65;;;0.60;;
77948;SDS011;67146;51.236;-0.336;2023-07-22T11:19:15;4.55;;;0.98;;
77948;SDS011;67146;51.236;-0.336;2023-07-22T11:21:42;4.85;;;0.73;;
77948;SDS011;67146;51.236;-0.336;2023-07-22T11:24:08;3.38;;;0.70;;
77948;SDS011;67146;51.236;-0.336;2023-07-22T11:26:33;4.28;;;0.80;;
77948;SDS011;67146;51.236;-0.336;2023-07-22T11:29:00;4.40;;;0.70;;
77948;SDS011;67146;51.236;-0.336;2023-07-22T11:31:30;4.80;;;1.60;;
77948;SDS011;67146;51.236;-0.336;2023-07-22T11:34:03;7.00;;;0.93;;
77948;SDS011;67146;51.236;-0.336;2023-07-22T11:36:31;3.67;;;0.90;;
77948;SDS011;67146;51.236;-0.336;2023-07-22T11:39:04;5.03;;;0.75;;
77948;SDS011;67146;51.236;-0.336;2023-07-22T11:41:37;4.55;;;1.17;;
77948;SDS011;67146;51.236;-0.336;2023-07-22T11:44:03;4.53;;;1.20;;
77948;SDS011;67146;51.236;-0.336;2023-07-22T11:46:34;4.50;;;1.35;;
77948;SDS011;67146;51.236;-0.336;2023-07-22T11:49:00;5.65;;;1.52;;
77948;SDS011;67146;51.236;-0.336;2023-07-22T11:51:26;7.40;;;1.63;;
77948;SDS011;67146;51.236;-0.336;2023-07-22T11:53:52;7.72;;;1.77;;
77948;SDS011;67146;51.236;-0.336;2023-07-22T11:56:22;5.38;;;1.52;;
77948;SDS011;67146;51.236;-0.336;2023-07-22T11:58:52;6.63;;;1.67;;
77948;SDS011;67146;51.236;-0.336;2023-07-22T12:01:18;8.00;;;1.38;;
77948;SDS011;67146;51.236;-0.336;2023-07-22T12:03:44;6.40;;;1.58;;
77948;SDS011;67146;51.236;-0.336;2023-07-22T12:06:10;8.05;;;2.22;;
77948;SDS011;67146;51.236;-0.336;2023-07-22T12:08:36;7.35;;;1.73;;
77948;SDS011;67146;51.236;-0.336;2023-07-22T12:11:02;8.52;;;2.00;;
77948;SDS011;67146;51.236;-0.336;2023-07-22T12:13:29;7.13;;;1.65;;
77948;SDS011;67146;51.236;-0.336;2023-07-22T12:16:00;5.80;;;1.75;;
77948;SDS011;67146;51.236;-0.336;2023-07-22T12:18:27;7.18;;;1.73;;
77948;SDS011;67146;51.236;-0.336;2023-07-22T12:20:52;5.95;;;1.65;;
77948;SDS011;67146;51.236;-0.336;2023-07-22T12:23:17;6.35;;;1.55;;
77948;SDS011;67146;51.236;-0.336;2023-07-22T12:25:43;6.75;;;1.88;;
77948;SDS011;67146;51.236;-0.336;2023-07-22T12:28:09;8.52;;;1.67;;
77948;SDS011;67146;51.236;-0.336;2023-07-22T12:30:35;10.90;;;1.75;;
77948;SDS011;67146;51.236;-0.336;2023-07-22T12:33:01;6.93;;;2.50;;
77948;SDS011;67146;51.236;-0.336;2023-07-22T12:35:27;8.63;;;2.78;;
77948;SDS011;67146;51.236;-0.336;2023-07-22T12:37:52;7.93;;;2.27;;
77948;SDS011;67146;51.236;-0.336;2023-07-22T12:40:18;6.70;;;2.10;;
77948;SDS011;67146;51.236;-0.336;2023-07-22T12:42:43;9.20;;;2.95;;
77948;SDS011;67146;51.236;-0.336;2023-07-22T12:45:08;13.02;;;2.63;;
77948;SDS011;67146;51.236;-0.336;2023-07-22T12:47:34;8.27;;;2.03;;
77948;SDS011;67146;51.236;-0.336;2023-07-22T12:50:00;9.65;;;2.28;;
77948;SDS011;67146;51.236;-0.336;2023-07-22T12:52:25;9.10;;;2.83;;
77948;SDS011;67146;51.236;-0.336;2023-07-22T12:54:51;5.50;;;1.42;;
77948;SDS011;67146;51.236;-0.336;2023-07-22T12:57:16;8.68;;;1.73;;
77948;SDS011;67146;51.236;-0.336;2023-07-22T12:59:41;6.20;;;1.93;;
77948;SDS011;67146;51.236;-0.336;2023-07-22T13:02:07;8.70;;;2.42;;
77948;SDS011;67146;51.236;-0.336;2023-07-22T13:04:32;8.70;;;2.55;;
77948;SDS011;67146;51.236;-0.336;2023-07-22T13:06:58;9.15;;;3.08;;
77948;SDS011;67146;51.236;-0.336;2023-07-22T13:09:23;7.63;;;2.13;;
77948;SDS011;67146;51.236;-0.336;2023-07-22T13:11:48;7.97;;;2.45;;
77948;SDS011;67146;51.236;-0.336;2023-07-22T13:14:14;5.22;;;1.77;;
77948;SDS011;67146;51.236;-0.336;2023-07-22T13:16:40;10.40;;;3.33;;
77948;SDS011;67146;51.236;-0.336;2023-07-22T13:19:05;9.32;;;3.05;;
77948;SDS011;67146;51.236;-0.336;2023-07-22T13:21:31;9.23;;;2.45;;
77948;SDS011;67146;51.236;-0.336;2023-07-22T13:23:56;7.75;;;1.83;;
77948;SDS011;67146;51.236;-0.336;2023-07-22T13:26:22;8.73;;;2.42;;
77948;SDS011;67146;51.236;-0.336;2023-07-22T13:28:47;9.68;;;2.55;;
77948;SDS011;67146;51.236;-0.336;2023-07-22T13:31:12;9.23;;;1.60;;
77948;SDS011;67146;51.236;-0.336;2023-07-22T13:33:38;10.27;;;2.42;;
77948;SDS011;67146;51.236;-0.336;2023-07-22T13:36:03;6.78;;;2.70;;
77948;SDS011;67146;51.236;-0.336;2023-07-22T13:38:29;7.50;;;2.30;;
77948;SDS011;67146;51.236;-0.336;2023-07-22T13:40:54;9.65;;;2.75;;
77948;SDS011;67146;51.236;-0.336;2023-07-22T13:43:20;9.45;;;3.45;;
77948;SDS011;67146;51.236;-0.336;2023-07-22T13:45:45;7.82;;;2.53;;
77948;SDS011;67146;51.236;-0.336;2023-07-22T13:48:11;9.38;;;2.83;;
77948;SDS011;67146;51.236;-0.336;2023-07-22T13:50:37;9.32;;;3.78;;
77948;SDS011;67146;51.236;-0.336;2023-07-22T13:53:02;8.57;;;2.90;;
77948;SDS011;67146;51.236;-0.336;2023-07-22T13:55:28;12.45;;;5.22;;
77948;SDS011;67146;51.236;-0.336;2023-07-22T13:57:53;8.88;;;3.72;;
77948;SDS011;67146;51.236;-0.336;2023-07-22T14:00:19;9.57;;;2.80;;
77948;SDS011;67146;51.236;-0.336;2023-07-22T14:02:44;8.60;;;2.47;;
77948;SDS011;67146;51.236;-0.336;2023-07-22T14:05:09;12.37;;;2.73;;
77948;SDS011;67146;51.236;-0.336;2023-07-22T14:07:35;9.38;;;2.40;;
77948;SDS011;67146;51.236;-0.336;2023-07-22T14:10:01;10.10;;;2.58;;
77948;SDS011;67146;51.236;-0.336;2023-07-22T14:12:29;11.35;;;2.22;;
77948;SDS011;67146;51.236;-0.336;2023-07-22T14:14:54;11.25;;;2.83;;
77948;SDS011;67146;51.236;-0.336;2023-07-22T14:17:20;8.95;;;2.67;;
77948;SDS011;67146;51.236;-0.336;2023-07-22T14:19:45;11.48;;;2.70;;
77948;SDS011;67146;51.236;-0.336;2023-07-22T14:22:11;8.27;;;2.57;;
77948;SDS011;67146;51.236;-0.336;2023-07-22T14:24:38;10.07;;;2.75;;
77948;SDS011;67146;51.236;-0.336;2023-07-22T14:27:04;7.63;;;2.83;;
77948;SDS011;67146;51.236;-0.336;2023-07-22T14:29:29;8.15;;;2.72;;
77948;SDS011;67146;51.236;-0.336;2023-07-22T14:31:58;9.85;;;2.42;;
77948;SDS011;67146;51.236;-0.336;2023-07-22T14:34:23;8.60;;;2.38;;
77948;SDS011;67146;51.236;-0.336;2023-07-22T14:36:48;9.82;;;2.58;;
77948;SDS011;67146;51.236;-0.336;2023-07-22T14:39:15;10.15;;;3.17;;
77948;SDS011;67146;51.236;-0.336;2023-07-22T14:41:43;11.15;;;3.50;;
77948;SDS011;67146;51.236;-0.336;2023-07-22T14:44:09;17.08;;;3.33;;
77948;SDS011;67146;51.236;-0.336;2023-07-22T14:46:37;13.85;;;3.70;;
77948;SDS011;67146;51.236;-0.336;2023-07-22T14:49:03;8.75;;;2.45;;
77948;SDS011;67146;51.236;-0.336;2023-07-22T14:51:29;10.27;;;2.80;;
77948;SDS011;67146;51.236;-0.336;2023-07-22T14:53:55;12.85;;;3.85;;
77948;SDS011;67146;51.236;-0.336;2023-07-22T14:56:23;11.02;;;2.95;;
77948;SDS011;67146;51.236;-0.336;2023-07-22T14:58:49;11.25;;;3.60;;
77948;SDS011;67146;51.236;-0.336;2023-07-22T15:01:14;11.57;;;4.13;;
77948;SDS011;67146;51.236;-0.336;2023-07-22T15:03:40;10.63;;;2.63;;
77948;SDS011;67146;51.236;-0.336;2023-07-22T15:08:35;10.35;;;3.78;;